Time;durP1;ratioP1;P1;durP2;ratioP2;P2;SDS_P1;SDS_P2;PMS_P1;PMS_P2;Temp;Humidity;BMP_temperature;BMP_pressure;BME280_temperature;BME280_humidity;BME280_pressure;Samples;Min_cycle;Max_cycle;Signal;HPM_P1;HPM_P2
2022/04/29 00:00:16;;;;;;;;;;;;;;;12.99;100.00;100676.67;1746750;82;20125;-72
2022/04/29 00:02:43;;;;;;;;;;;;;;;12.95;100.00;100673.97;1746868;82;20422;-72
2022/04/29 00:05:10;;;;;;;;;;;;;;;12.94;100.00;100672.78;1746870;82;20101;-74
2022/04/29 00:07:39;;;;;;;;;;;;;;;12.91;100.00;100671.27;1746855;82;20093;-73
2022/04/29 00:10:08;;;;;;;;;;;;;;;12.89;100.00;100668.72;1746507;82;20188;-71
2022/04/29 00:12:37;;;;;;;;;;;;;;;12.88;100.00;100669.73;1747149;82;20168;-71
2022/04/29 00:15:07;;;;;;;;;;;;;;;12.87;100.00;100663.98;1746759;82;20114;-72
2022/04/29 00:17:36;;;;;;;;;;;;;;;12.86;100.00;100669.05;1746835;82;20148;-72
2022/04/29 00:20:04;;;;;;;;;;;;;;;12.81;100.00;100668.72;1746695;82;20137;-73
2022/04/29 00:22:33;;;;;;;;;;;;;;;12.76;100.00;100667.54;1747086;82;20101;-72
2022/04/29 00:25:02;;;;;;;;;;;;;;;12.72;100.00;100672.45;1746595;82;20105;-72
2022/04/29 00:27:30;;;;;;;;;;;;;;;12.69;100.00;100673.63;1779112;80;20448;-72
2022/04/29 00:29:57;;;;;;;;;;;;;;;12.67;100.00;100678.38;1790652;80;20108;-71
2022/04/29 00:32:26;;;;;;;;;;;;;;;12.65;100.00;100676.34;1792688;80;20108;-73
2022/04/29 00:34:54;;;;;;;;;;;;;;;12.64;100.00;100671.95;1792593;80;20100;-70
2022/04/29 00:37:21;;;;;;;;;;;;;;;12.61;100.00;100669.58;1792748;80;20120;-71
2022/04/29 00:39:48;;;;;;;;;;;;;;;12.58;100.00;100665.00;1792438;80;20092;-73
2022/04/29 00:42:16;;;;;;;;;;;;;;;12.57;100.00;100668.71;1792846;80;20104;-72
2022/04/29 00:44:44;;;;;;;;;;;;;;;12.54;100.00;100659.91;1792836;80;20104;-72
2022/04/29 00:47:13;;;;;;;;;;;;;;;12.53;100.00;100658.19;1793534;80;20104;-72
2022/04/29 00:49:41;;;;;;;;;;;;;;;12.49;100.00;100659.55;1793064;80;20404;-72
2022/04/29 00:52:10;;;;;;;;;;;;;;;12.48;100.00;100657.01;1792720;79;20092;-72
2022/04/29 00:54:37;;;;;;;;;;;;;;;12.46;100.00;100654.98;1769288;80;20124;-70
2022/04/29 00:57:07;;;;;;;;;;;;;;;12.42;100.00;100663.13;1792767;80;20116;-72
2022/04/29 00:59:54;;;;;;;;;;;;;;;12.40;100.00;100659.73;1792643;80;20088;-72
2022/04/29 01:02:20;;;;;;;;;;;;;;;12.39;100.00;100661.58;1792793;80;20100;-71
2022/04/29 01:04:59;;;;;;;;;;;;;;;12.35;100.00;100661.06;1792802;80;20376;-72
2022/04/29 01:07:29;;;;;;;;;;;;;;;12.34;100.00;100670.23;1792417;80;20564;-72
2022/04/29 01:09:58;;;;;;;;;;;;;;;12.32;100.00;100674.11;1792767;80;20096;-71
2022/04/29 01:12:26;;;;;;;;;;;;;;;12.30;100.00;100674.27;1792535;80;20404;-71
2022/04/29 01:14:55;;;;;;;;;;;;;;;12.29;100.00;100672.59;1792504;80;20129;-72
2022/04/29 01:17:22;;;;;;;;;;;;;;;12.27;100.00;100673.75;1792579;80;20105;-72
2022/04/29 01:19:49;;;;;;;;;;;;;;;12.24;100.00;100676.30;1792700;80;20107;-72
2022/04/29 01:22:16;;;;;;;;;;;;;;;12.22;100.00;100670.73;1792773;80;20108;-73
2022/04/29 01:24:44;;;;;;;;;;;;;;;12.22;100.00;100674.79;1792658;80;20120;-72
2022/04/29 01:27:12;;;;;;;;;;;;;;;12.22;100.00;100670.73;1786888;80;20096;-72
2022/04/29 01:29:42;;;;;;;;;;;;;;;12.20;100.00;100676.31;1788396;80;20120;-72
2022/04/29 01:32:10;;;;;;;;;;;;;;;12.20;100.00;100669.53;1793683;79;20127;-73
2022/04/29 01:34:39;;;;;;;;;;;;;;;12.18;100.00;100674.25;1783111;80;20104;-71
2022/04/29 01:37:06;;;;;;;;;;;;;;;12.17;100.00;100676.63;1774629;80;20108;-73
2022/04/29 01:39:34;;;;;;;;;;;;;;;12.15;100.00;100671.37;1774978;80;20384;-71
2022/04/29 01:42:01;;;;;;;;;;;;;;;12.15;100.00;100674.09;1774795;80;20097;-72
2022/04/29 01:44:28;;;;;;;;;;;;;;;12.15;100.00;100671.37;1774616;81;20093;-72
2022/04/29 01:46:55;;;;;;;;;;;;;;;12.14;100.00;100679.67;1774821;80;20109;-71
2022/04/29 01:49:27;;;;;;;;;;;;;;;12.11;100.00;100672.73;1775362;80;20594;-72
2022/04/29 01:51:57;;;;;;;;;;;;;;;12.10;100.00;100672.89;1774616;81;20120;-72
2022/04/29 01:54:25;;;;;;;;;;;;;;;12.09;100.00;100665.77;1774753;81;20089;-72
2022/04/29 01:56:53;;;;;;;;;;;;;;;12.07;100.00;100659.66;1774699;80;20428;-72
2022/04/29 01:59:20;;;;;;;;;;;;;;;12.03;100.00;100656.44;1778514;80;20152;-71
2022/04/29 02:04:36;;;;;;;;;;;;;;;11.99;100.00;100662.34;1702106;83;20138;-71
2022/04/29 02:07:04;;;;;;;;;;;;;;;11.98;100.00;100658.79;1702400;84;20157;-72
2022/04/29 02:09:33;;;;;;;;;;;;;;;11.98;100.00;100666.92;1701998;84;20254;-73
2022/04/29 02:12:04;;;;;;;;;;;;;;;11.97;100.00;100667.95;1702177;84;20186;-70
2022/04/29 02:14:48;;;;;;;;;;;;;;;11.98;100.00;100672.86;1644256;87;20431;-71
2022/04/29 02:17:18;;;;;;;;;;;;;;;11.99;100.00;100674.53;1644293;87;20443;-70
2022/04/29 02:19:44;;;;;;;;;;;;;;;11.98;100.00;100671.50;1643970;87;20169;-71
2022/04/29 02:22:11;;;;;;;;;;;;;;;11.96;100.00;100673.86;1644336;86;20464;-71
2022/04/29 02:24:40;;;;;;;;;;;;;;;11.95;100.00;100669.95;1644226;87;20113;-71
2022/04/29 02:27:08;;;;;;;;;;;;;;;11.93;100.00;100676.92;1650080;86;20102;-70
2022/04/29 02:29:37;;;;;;;;;;;;;;;11.92;100.00;100681.98;1661602;86;20144;-70
2022/04/29 02:32:07;;;;;;;;;;;;;;;11.91;100.00;100672.66;1662978;86;20116;-70
2022/04/29 02:34:36;;;;;;;;;;;;;;;11.90;100.00;100677.23;1673302;85;20484;-70
2022/04/29 02:37:04;;;;;;;;;;;;;;;11.89;100.00;100676.02;1684515;85;20408;-70
2022/04/29 02:39:32;;;;;;;;;;;;;;;11.87;100.00;100678.04;1682596;85;20116;-70
2022/04/29 02:41:59;;;;;;;;;;;;;;;11.84;100.00;100673.78;1682668;85;20139;-70
2022/04/29 02:44:26;;;;;;;;;;;;;;;11.81;100.00;100680.91;1682513;85;20112;-69
2022/04/29 02:47:09;;;;;;;;;;;;;;;11.80;100.00;100689.19;1682333;85;20112;-71
2022/04/29 02:49:38;;;;;;;;;;;;;;;11.80;100.00;100699.52;1706613;83;20422;-71
2022/04/29 02:52:06;;;;;;;;;;;;;;;11.80;100.00;100689.19;1687868;85;20397;-69
2022/04/29 02:54:35;;;;;;;;;;;;;;;11.78;100.00;100694.25;1659148;87;20407;-70
2022/04/29 02:57:03;;;;;;;;;;;;;;;11.77;100.00;100698.00;1704262;84;20105;-68
2022/04/29 02:59:39;;;;;;;;;;;;;;;11.78;100.00;100695.61;1730329;83;20089;-70
2022/04/29 03:02:06;;;;;;;;;;;;;;;11.80;100.00;100700.03;1751327;81;20087;-71
2022/04/29 03:04:35;;;;;;;;;;;;;;;11.81;100.00;100703.06;1756849;82;20407;-69
2022/04/29 03:07:03;;;;;;;;;;;;;;;11.83;100.00;100713.23;1756620;82;20111;-71
2022/04/29 03:09:33;;;;;;;;;;;;;;;11.82;100.00;100711.55;1753589;82;20142;-71
2022/04/29 03:12:02;;;;;;;;;;;;;;;11.80;100.00;100709.52;1756725;81;20118;-70
2022/04/29 03:14:32;;;;;;;;;;;;;;;11.81;100.00;100717.97;1753352;81;20392;-70
2022/04/29 03:17:00;;;;;;;;;;;;;;;11.80;100.00;100717.64;1756678;82;20119;-70
2022/04/29 03:19:28;;;;;;;;;;;;;;;11.79;100.00;100715.42;1756801;82;20134;-70
2022/04/29 03:21:55;;;;;;;;;;;;;;;11.80;100.00;100727.97;1756621;82;20091;-70
2022/04/29 03:24:23;;;;;;;;;;;;;;;11.80;100.00;100718.48;1756871;82;20099;-68
2022/04/29 03:26:50;;;;;;;;;;;;;;;11.81;100.00;100719.33;1753428;81;20110;-70
2022/04/29 03:29:17;;;;;;;;;;;;;;;11.84;100.00;100730.69;1731502;83;20139;-69
2022/04/29 03:31:46;;;;;;;;;;;;;;;11.86;100.00;100724.59;1735860;83;20099;-69
2022/04/29 03:34:21;;;;;;;;;;;;;;;11.89;100.00;100724.79;1723282;83;20114;-70
2022/04/29 03:36:48;;;;;;;;;;;;;;;11.87;100.00;100727.66;1712620;84;20445;-69
2022/04/29 03:39:15;;;;;;;;;;;;;;;11.87;100.00;100719.53;1712427;84;20170;-70
2022/04/29 03:41:45;;;;;;;;;;;;;;;11.84;100.00;100724.42;1712528;84;20133;-68
2022/04/29 03:44:14;;;;;;;;;;;;;;;11.83;100.00;100718.65;1712577;84;20154;-69
2022/04/29 03:46:43;;;;;;;;;;;;;;;11.83;100.00;100727.65;1712633;84;20146;-69
2022/04/29 03:52:00;;;;;;;;;;;;;;;11.85;100.00;100721.55;1728028;83;20106;-69
2022/04/29 03:54:27;;;;;;;;;;;;;;;11.87;100.00;100729.02;1727997;83;20455;-70
2022/04/29 03:56:55;;;;;;;;;;;;;;;11.87;100.00;100723.59;1753101;82;20384;-71
2022/04/29 03:59:22;;;;;;;;;;;;;;;11.88;100.00;100726.66;1756032;82;20106;-70
2022/04/29 04:01:51;;;;;;;;;;;;;;;11.92;100.00;100729.41;1755819;81;20993;-71
2022/04/29 04:04:20;;;;;;;;;;;;;;;12.01;100.00;100726.74;1756028;80;20146;-69
2022/04/29 04:06:50;;;;;;;;;;;;;;;12.05;100.00;100734.36;1756191;82;20434;-71
2022/04/29 04:09:21;;;;;;;;;;;;;;;12.09;100.00;100730.81;1755922;81;20131;-71
2022/04/29 04:11:51;;;;;;;;;;;;;;;12.14;100.00;100733.37;1756118;81;20411;-68
2022/04/29 04:14:20;;;;;;;;;;;;;;;12.18;100.00;100737.12;1755465;81;20106;-71
2022/04/29 04:16:48;;;;;;;;;;;;;;;12.20;100.00;100740.02;1756269;81;20111;-73
2022/04/29 04:19:16;;;;;;;;;;;;;;;12.20;100.00;100748.16;1755908;81;20178;-70
2022/04/29 04:21:44;;;;;;;;;;;;;;;12.15;100.00;100751.86;1756264;82;20399;-71
2022/04/29 04:24:12;;;;;;;;;;;;;;;12.12;100.00;100754.38;1750595;81;20140;-69
2022/04/29 04:26:40;;;;;;;;;;;;;;;12.10;100.00;100756.41;1758209;81;20102;-70
2022/04/29 04:29:09;;;;;;;;;;;;;;;12.11;100.00;100757.25;1750000;82;20107;-70
2022/04/29 04:31:38;;;;;;;;;;;;;;;12.06;100.00;100759.11;1749153;81;20103;-69
2022/04/29 04:36:53;;;;;;;;;;;;;;;12.03;100.00;100763.50;1746953;82;20098;-71
2022/04/29 04:39:21;;;;;;;;;;;;;;;11.99;100.00;100762.62;1746606;82;20121;-69
2022/04/29 04:41:49;;;;;;;;;;;;;;;11.98;100.00;100765.00;1746712;82;20393;-70
2022/04/29 04:44:19;;;;;;;;;;;;;;;11.96;100.00;100774.13;1746674;81;20097;-70
2022/04/29 04:46:46;;;;;;;;;;;;;;;11.97;100.00;100773.65;1747051;82;20109;-70
2022/04/29 04:49:15;;;;;;;;;;;;;;;11.97;100.00;100777.72;1747335;82;20093;-70
2022/04/29 04:51:59;;;;;;;;;;;;;;;11.97;100.00;100784.49;1747481;82;20133;-70
2022/04/29 04:54:26;;;;;;;;;;;;;;;11.99;100.00;100777.05;1746947;82;20105;-70
2022/04/29 04:56:55;;;;;;;;;;;;;;;11.97;100.00;100783.13;1746905;82;20406;-69
2022/04/29 04:59:23;;;;;;;;;;;;;;;11.96;100.00;100780.91;1746592;82;20085;-69
2022/04/29 05:01:49;;;;;;;;;;;;;;;11.98;100.00;100784.81;1746582;81;20133;-69
2022/04/29 05:04:36;;;;;;;;;;;;;;;11.95;100.00;100790.55;1746965;82;20186;-70
2022/04/29 05:07:08;;;;;;;;;;;;;;;11.93;100.00;100786.67;1720999;83;20177;-71
2022/04/29 05:09:37;;;;;;;;;;;;;;;11.92;100.00;100784.12;1771014;80;20745;-70
2022/04/29 05:12:04;;;;;;;;;;;;;;;11.95;100.00;100787.84;1771154;80;20097;-70
2022/04/29 05:14:53;;;;;;;;;;;;;;;11.92;100.00;100789.03;1771021;80;20097;-69
2022/04/29 05:17:20;;;;;;;;;;;;;;;11.90;100.00;100788.34;1770958;80;20129;-69
2022/04/29 05:20:08;;;;;;;;;;;;;;;11.91;100.00;100789.19;1771034;80;20117;-69
2022/04/29 05:22:39;;;;;;;;;;;;;;;11.99;100.00;100784.30;1769163;81;20192;-70
2022/04/29 05:25:09;;;;;;;;;;;;;;;12.10;100.00;100782.16;1770590;81;20216;-71
2022/04/29 05:27:38;;;;;;;;;;;;;;;12.31;100.00;100780.38;1732545;82;20187;-70
2022/04/29 05:30:26;;;;;;;;;;;;;;;12.47;100.00;100789.08;1701604;83;20138;-70
2022/04/29 05:33:12;;;;;;;;;;;;;;;12.69;100.00;100786.23;1718005;82;20101;-71
2022/04/29 05:35:58;;;;;;;;;;;;;;;12.91;100.00;100786.63;1725222;83;20500;-71
2022/04/29 05:44:08;;;;;;;;;;;;;;;13.17;97.75;100785.61;1678318;85;20100;-72
2022/04/29 05:46:35;;;;;;;;;;;;;;;13.27;99.44;100789.00;1689808;84;20096;-70
2022/04/29 05:49:04;;;;;;;;;;;;;;;13.33;95.94;100790.22;1689057;85;20092;-71
2022/04/29 05:51:35;;;;;;;;;;;;;;;13.34;96.64;100797.36;1688695;85;20111;-72
2022/04/29 05:54:02;;;;;;;;;;;;;;;13.42;97.49;100795.48;1689792;85;20491;-70
2022/04/29 05:56:30;;;;;;;;;;;;;;;13.53;96.24;100798.84;1666657;85;20103;-70
2022/04/29 05:58:57;;;;;;;;;;;;;;;13.57;95.28;100787.99;1689758;85;20136;-71
2022/04/29 06:01:44;;;;;;;;;;;;;;;13.55;93.68;100793.59;1689531;85;20460;-70
2022/04/29 06:04:12;;;;;;;;;;;;;;;13.53;94.29;100790.20;1692652;83;20147;-70
2022/04/29 06:06:40;;;;;;;;;;;;;;;13.56;94.65;100797.98;1710997;84;20394;-69
2022/04/29 06:09:08;;;;;;;;;;;;;;;13.71;96.62;100797.31;1711300;84;20113;-71
2022/04/29 06:11:38;;;;;;;;;;;;;;;13.87;96.58;100797.27;1711612;84;20118;-71
2022/04/29 06:14:07;;;;;;;;;;;;;;;14.05;95.21;100800.59;1710885;84;20486;-70
2022/04/29 06:16:41;;;;;;;;;;;;;;;14.12;93.06;100802.63;1706257;83;20178;-70
2022/04/29 06:19:19;;;;;;;;;;;;;;;14.13;91.84;100801.09;1709758;84;20141;-70
2022/04/29 06:22:05;;;;;;;;;;;;;;;14.19;91.76;100798.17;1709943;83;20126;-71
2022/04/29 06:24:35;;;;;;;;;;;;;;;14.31;92.12;100799.48;1709619;84;20106;-72
2022/04/29 06:27:04;;;;;;;;;;;;;;;14.47;90.55;100796.36;1710461;82;20175;-71
2022/04/29 06:29:33;;;;;;;;;;;;;;;14.62;90.85;100795.94;1707690;83;20418;-69
2022/04/29 06:32:01;;;;;;;;;;;;;;;14.71;89.28;100795.38;1713854;83;20160;-68
2022/04/29 06:34:49;;;;;;;;;;;;;;;14.80;88.12;100795.66;1629350;86;20151;-68
2022/04/29 06:37:14;;;;;;;;;;;;;;;14.93;86.62;100800.53;1673237;85;20164;-68
2022/04/29 06:39:42;;;;;;;;;;;;;;;14.95;81.89;100793.86;1667689;86;20461;-68
2022/04/29 06:42:13;;;;;;;;;;;;;;;14.94;83.79;100792.18;1663984;86;20121;-67
2022/04/29 06:44:42;;;;;;;;;;;;;;;15.11;84.35;100790.69;1661212;86;20110;-67
2022/04/29 06:47:28;;;;;;;;;;;;;;;15.35;83.35;100788.25;1645522;87;20329;-66
2022/04/29 06:50:15;;;;;;;;;;;;;;;15.52;79.77;100787.07;1633721;86;20128;-67
2022/04/29 06:53:00;;;;;;;;;;;;;;;15.90;79.19;100784.33;1633229;88;20167;-66
2022/04/29 06:55:28;;;;;;;;;;;;;;;16.43;80.18;100781.46;1667169;85;20186;-68
2022/04/29 06:57:56;;;;;;;;;;;;;;;16.98;79.93;100785.11;1683499;85;20150;-68
2022/04/29 07:00:23;;;;;;;;;;;;;;;17.49;71.04;100785.46;1684008;85;20135;-69
2022/04/29 07:02:52;;;;;;;;;;;;;;;17.77;68.29;100793.66;1683782;85;20151;-67
2022/04/29 07:05:19;;;;;;;;;;;;;;;17.81;63.07;100784.86;1683996;85;20116;-67
2022/04/29 07:07:49;;;;;;;;;;;;;;;17.70;59.34;100789.50;1683820;85;20107;-67
2022/04/29 07:10:31;;;;;;;;;;;;;;;17.60;62.65;100787.64;1702797;84;20247;-67
2022/04/29 07:13:03;;;;;;;;;;;;;;;17.95;61.66;100791.27;1644800;87;20108;-67
2022/04/29 07:15:31;;;;;;;;;;;;;;;18.35;57.84;100786.01;1644030;86;20215;-69
2022/04/29 07:18:01;;;;;;;;;;;;;;;18.24;52.90;100783.00;1644113;87;20095;-69
2022/04/29 07:20:30;;;;;;;;;;;;;;;18.05;55.38;100792.29;1643930;87;20558;-68
2022/04/29 07:22:57;;;;;;;;;;;;;;;18.11;54.82;100790.63;1695185;84;20177;-67
2022/04/29 07:25:24;;;;;;;;;;;;;;;18.19;56.01;100793.20;1678451;84;20140;-68
2022/04/29 07:27:51;;;;;;;;;;;;;;;18.18;56.58;100784.16;1709789;83;20406;-67
2022/04/29 07:30:19;;;;;;;;;;;;;;;18.19;54.86;100785.83;1737215;83;20127;-68
2022/04/29 07:32:48;;;;;;;;;;;;;;;18.16;53.89;100785.39;1732483;83;20110;-68
2022/04/29 07:43:57;;;;;;;;;;;;;;;18.26;53.44;100785.03;1752108;82;20140;-67
2022/04/29 07:46:26;;;;;;;;;;;;;;;18.08;51.44;100788.29;1748996;82;20124;-68
2022/04/29 07:49:13;;;;;;;;;;;;;;;17.79;52.84;100785.56;1687648;82;20381;-66
2022/04/29 07:51:40;;;;;;;;;;;;;;;17.42;51.42;100781.30;1722502;83;20129;-68
2022/04/29 07:54:07;;;;;;;;;;;;;;;17.10;53.11;100782.19;1721892;83;20486;-68
2022/04/29 07:56:34;;;;;;;;;;;;;;;17.00;55.18;100783.89;1722124;83;20117;-68
2022/04/29 07:59:02;;;;;;;;;;;;;;;17.06;55.40;100784.98;1721993;82;20109;-68
2022/04/29 08:01:30;;;;;;;;;;;;;;;17.20;55.73;100789.53;1712355;83;20107;-68
2022/04/29 08:03:58;;;;;;;;;;;;;;;17.39;54.63;100776.25;1700528;83;20472;-67
2022/04/29 08:06:26;;;;;;;;;;;;;;;17.52;53.06;100786.44;1694776;85;20152;-67
2022/04/29 08:08:53;;;;;;;;;;;;;;;17.62;53.96;100786.95;1693855;85;20154;-68
2022/04/29 08:11:24;;;;;;;;;;;;;;;17.68;51.64;100784.77;1693209;85;20104;-69
2022/04/29 08:13:56;;;;;;;;;;;;;;;17.64;49.49;100784.84;1693927;85;20115;-68
2022/04/29 08:16:24;;;;;;;;;;;;;;;17.54;49.79;100789.81;1665533;85;20118;-68
2022/04/29 08:19:02;;;;;;;;;;;;;;;17.61;49.69;100791.55;1662605;86;20170;-68
2022/04/29 08:21:47;;;;;;;;;;;;;;;17.81;50.68;100787.60;1636328;88;20212;-67
2022/04/29 08:24:14;;;;;;;;;;;;;;;18.20;50.06;100788.91;1635869;88;20205;-68
2022/04/29 08:26:42;;;;;;;;;;;;;;;18.62;48.64;100792.12;1637310;87;20157;-68
2022/04/29 08:29:11;;;;;;;;;;;;;;;18.68;43.27;100789.41;1704510;83;20103;-68
2022/04/29 08:31:39;;;;;;;;;;;;;;;18.38;44.16;100790.25;1685617;84;20093;-66
2022/04/29 08:34:16;;;;;;;;;;;;;;;18.12;44.42;100780.02;1668087;85;20117;-66
2022/04/29 08:36:44;;;;;;;;;;;;;;;17.94;44.84;100781.39;1667580;86;20105;-67
2022/04/29 08:39:11;;;;;;;;;;;;;;;17.82;44.75;100785.17;1667579;86;20443;-69
2022/04/29 08:41:41;;;;;;;;;;;;;;;17.73;45.04;100779.55;1681367;85;20132;-67
2022/04/29 08:44:10;;;;;;;;;;;;;;;17.64;45.60;100779.37;1663241;85;20165;-68
2022/04/29 08:46:48;;;;;;;;;;;;;;;17.51;44.27;100776.53;1652437;87;20446;-68
2022/04/29 08:49:34;;;;;;;;;;;;;;;17.36;44.38;100776.11;1651990;87;20197;-67
2022/04/29 08:52:03;;;;;;;;;;;;;;;17.35;46.90;100773.56;1650932;87;20216;-67
2022/04/29 09:00:04;;;;;;;;;;;;;;;17.87;46.86;100772.30;1748944;82;20134;-72
2022/04/29 09:02:41;;;;;;;;;;;;;;;17.97;47.24;100765.08;1779351;80;20936;-71
2022/04/29 09:05:09;;;;;;;;;;;;;;;18.02;46.29;100773.03;1780006;80;20124;-71
2022/04/29 09:07:56;;;;;;;;;;;;;;;17.97;46.63;100767.31;1778926;80;20409;-75
2022/04/29 09:10:24;;;;;;;;;;;;;;;17.84;47.41;100765.29;1762152;81;20158;-70
2022/04/29 09:12:52;;;;;;;;;;;;;;;17.83;48.46;100773.73;1821896;79;20165;-70
2022/04/29 09:15:19;;;;;;;;;;;;;;;17.79;48.26;100772.42;1823256;79;20461;-70
2022/04/29 09:17:49;;;;;;;;;;;;;;;17.65;48.33;100774.21;1822612;79;20129;-70
2022/04/29 09:20:21;;;;;;;;;;;;;;;17.62;48.45;100776.00;1741832;81;21677;-69
2022/04/29 09:22:50;;;;;;;;;;;;;;;17.55;48.29;100777.31;1766992;81;20113;-69
2022/04/29 09:25:19;;;;;;;;;;;;;;;17.50;48.34;100778.43;1763523;81;20136;-71
2022/04/29 09:27:55;;;;;;;;;;;;;;;17.32;48.10;100776.19;1763593;81;20136;-71
2022/04/29 09:30:39;;;;;;;;;;;;;;;17.07;48.73;100776.60;1768236;81;20422;-71
2022/04/29 09:33:24;;;;;;;;;;;;;;;16.96;49.33;100775.73;1766529;81;20426;-70
2022/04/29 09:35:57;;;;;;;;;;;;;;;16.98;48.72;100772.31;1711778;84;20152;-69
2022/04/29 09:41:09;;;;;;;;;;;;;;;16.99;47.59;100766.33;1712327;83;20128;-71
2022/04/29 09:43:40;;;;;;;;;;;;;;;16.81;49.36;100767.59;1688675;84;20161;-67
2022/04/29 09:46:23;;;;;;;;;;;;;;;16.80;50.81;100765.91;1711292;84;20149;-72
2022/04/29 09:48:51;;;;;;;;;;;;;;;16.89;52.27;100762.53;1661304;86;20093;-71
2022/04/29 09:51:41;;;;;;;;;;;;;;;16.96;53.23;100768.91;1659834;86;20145;-71
2022/04/29 09:54:17;;;;;;;;;;;;;;;16.99;53.31;100766.33;1661196;86;20114;-71
2022/04/29 09:56:45;;;;;;;;;;;;;;;16.94;53.20;100768.80;1661756;86;20106;-71
2022/04/29 09:59:12;;;;;;;;;;;;;;;16.74;52.73;100768.04;1661332;86;20114;-70
2022/04/29 10:01:42;;;;;;;;;;;;;;;16.59;53.04;100763.14;1660687;86;20394;-72
2022/04/29 10:04:09;;;;;;;;;;;;;;;16.45;54.00;100763.50;1635145;88;20155;-68
2022/04/29 10:06:36;;;;;;;;;;;;;;;16.36;55.10;100768.25;1635304;87;20143;-70
2022/04/29 10:09:03;;;;;;;;;;;;;;;16.36;53.91;100768.75;1635621;87;20156;-72
2022/04/29 10:11:31;;;;;;;;;;;;;;;16.29;52.94;100761.88;1635375;87;20179;-71
2022/04/29 10:14:01;;;;;;;;;;;;;;;16.09;53.25;100763.80;1626467;87;20169;-71
2022/04/29 10:16:31;;;;;;;;;;;;;;;16.02;55.46;100765.59;1648462;87;20478;-70
2022/04/29 10:22:08;;;;;;;;;;;;;;;16.20;54.54;100762.50;1655742;87;20147;-72
2022/04/29 10:24:35;;;;;;;;;;;;;;;16.29;54.67;100764.08;1655634;87;20149;-71
2022/04/29 10:27:02;;;;;;;;;;;;;;;16.36;54.22;100762.80;1655039;87;20113;-71
2022/04/29 10:29:29;;;;;;;;;;;;;;;16.33;54.59;100768.63;1685000;84;20196;-73
2022/04/29 10:32:07;;;;;;;;;;;;;;;16.27;55.86;100768.87;1696971;85;20469;-71
2022/04/29 10:34:35;;;;;;;;;;;;;;;16.33;57.23;100761.28;1704491;84;20189;-70
2022/04/29 10:37:12;;;;;;;;;;;;;;;16.42;58.29;100766.64;1712187;84;20117;-72
2022/04/29 10:39:40;;;;;;;;;;;;;;;16.39;55.65;100774.67;1710173;83;20130;-71
2022/04/29 10:44:56;;;;;;;;;;;;;;;16.14;58.47;100775.52;1654061;87;20156;-69
2022/04/29 10:47:36;;;;;;;;;;;;;;;16.11;59.86;100776.76;1564687;91;20170;-70
2022/04/29 10:50:28;;;;;;;;;;;;;;;16.07;60.22;100778.67;1537589;93;20116;-71
2022/04/29 10:53:14;;;;;;;;;;;;;;;16.08;61.75;100779.02;1504655;95;20198;-70
2022/04/29 10:55:41;;;;;;;;;;;;;;;16.09;63.24;100777.96;1474030;96;20145;-71
2022/04/29 10:58:20;;;;;;;;;;;;;;;16.11;63.79;100778.61;1500761;95;20156;-69
2022/04/29 11:01:10;;;;;;;;;;;;;;;16.09;65.17;100778.80;1501034;95;20159;-71
2022/04/29 11:03:41;;;;;;;;;;;;;;;16.09;67.17;100777.96;1477594;97;20169;-71
2022/04/29 11:06:10;;;;;;;;;;;;;;;16.13;68.87;100775.20;1476372;97;20135;-71
2022/04/29 11:08:38;;;;;;;;;;;;;;;16.17;69.00;100764.76;1466729;97;20181;-72
2022/04/29 11:11:05;;;;;;;;;;;;;;;16.22;67.80;100761.78;1489410;96;20165;-70
2022/04/29 11:13:39;;;;;;;;;;;;;;;16.25;64.85;100766.00;1485769;96;20222;-73
2022/04/29 11:16:25;;;;;;;;;;;;;;;16.26;64.53;100760.88;1487392;96;20161;-72
2022/04/29 11:19:21;;;;;;;;;;;;;;;16.33;63.57;100750.89;1510032;95;20180;-71
2022/04/29 11:24:46;;;;;;;;;;;;;;;16.36;60.43;100753.25;1542827;90;20184;-70
2022/04/29 11:27:27;;;;;;;;;;;;;;;16.39;59.57;100747.38;1583840;90;20144;-73
2022/04/29 11:32:26;;;;;;;;;;;;;;;16.41;60.28;100741.73;1505283;95;20648;-74
2022/04/29 11:34:57;;;;;;;;;;;;;;;16.42;61.67;100744.27;1505526;95;20136;-74
2022/04/29 11:37:24;;;;;;;;;;;;;;;16.47;62.70;100732.27;1504911;95;20151;-71
2022/04/29 11:39:57;;;;;;;;;;;;;;;16.51;62.95;100730.83;1518318;94;20150;-73
2022/04/29 11:42:24;;;;;;;;;;;;;;;16.56;64.19;100731.63;1527898;94;20135;-72
2022/04/29 11:44:52;;;;;;;;;;;;;;;16.62;64.45;100733.56;1528038;94;20130;-73
2022/04/29 11:47:26;;;;;;;;;;;;;;;16.63;64.70;100731.70;1533457;92;20119;-73
2022/04/29 11:49:53;;;;;;;;;;;;;;;16.63;64.49;100723.52;1553512;92;20132;-71
2022/04/29 11:52:27;;;;;;;;;;;;;;;16.61;64.10;100723.70;1562130;88;20186;-73
2022/04/29 11:54:56;;;;;;;;;;;;;;;16.53;65.06;100723.81;1629887;88;20152;-73
2022/04/29 11:57:24;;;;;;;;;;;;;;;16.54;66.43;100721.92;1629627;88;21046;-72
2022/04/29 11:59:51;;;;;;;;;;;;;;;16.52;67.61;100724.87;1629908;88;20471;-72
2022/04/29 12:02:19;;;;;;;;;;;;;;;16.49;67.55;100721.16;1629785;88;20132;-74
2022/04/29 12:04:59;;;;;;;;;;;;;;;16.44;67.30;100708.60;1629940;88;20143;-71
2022/04/29 12:07:29;;;;;;;;;;;;;;;16.41;69.05;100708.45;1630145;88;20206;-72
2022/04/29 12:09:59;;;;;;;;;;;;;;;16.37;69.46;100707.16;1582869;91;20172;-73
2022/04/29 12:12:29;;;;;;;;;;;;;;;16.35;69.79;100708.41;1583025;91;20260;-74
2022/04/29 12:15:01;;;;;;;;;;;;;;;16.29;69.25;100702.67;1582356;91;20160;-73
2022/04/29 12:17:37;;;;;;;;;;;;;;;16.25;69.99;100699.14;1582323;91;20165;-74
2022/04/29 12:20:06;;;;;;;;;;;;;;;16.25;69.68;100697.78;1582502;89;20145;-73
2022/04/29 12:22:34;;;;;;;;;;;;;;;16.27;71.23;100697.93;1555595;92;20127;-71
2022/04/29 12:28:09;;;;;;;;;;;;;;;16.35;69.42;100692.86;1503602;95;20249;-72
2022/04/29 12:36:12;;;;;;;;;;;;;;;16.11;67.71;100697.64;1537092;92;20157;-72
2022/04/29 12:38:45;;;;;;;;;;;;;;;16.09;67.18;100695.59;1501492;95;20177;-72
2022/04/29 12:41:25;;;;;;;;;;;;;;;16.05;65.81;100694.30;1524338;94;20137;-74
2022/04/29 12:43:52;;;;;;;;;;;;;;;16.02;65.61;100700.12;1523829;94;20537;-72
2022/04/29 12:46:20;;;;;;;;;;;;;;;16.02;64.94;100694.67;1524682;94;20134;-73
2022/04/29 12:48:49;;;;;;;;;;;;;;;16.08;63.85;100697.18;1524675;94;20170;-74
2022/04/29 12:51:34;;;;;;;;;;;;;;;16.15;63.37;100695.38;1520686;94;20136;-74
2022/04/29 12:54:03;;;;;;;;;;;;;;;16.25;63.53;100690.43;1512794;95;20134;-72
2022/04/29 12:56:34;;;;;;;;;;;;;;;16.35;63.27;100692.86;1513579;95;20161;-74
2022/04/29 12:59:03;;;;;;;;;;;;;;;16.40;62.43;100686.84;1513126;95;20129;-73
2022/04/29 13:01:37;;;;;;;;;;;;;;;16.44;62.80;100685.41;1508973;95;20206;-74
2022/04/29 13:04:06;;;;;;;;;;;;;;;16.43;62.05;100687.80;1503285;94;20153;-72
2022/04/29 13:06:51;;;;;;;;;;;;;;;16.40;62.38;100689.56;1476082;97;20135;-72
2022/04/29 13:09:18;;;;;;;;;;;;;;;16.33;61.79;100681.30;1484387;96;20529;-72
2022/04/29 13:11:45;;;;;;;;;;;;;;;16.21;61.96;100690.50;1483862;97;20161;-74
2022/04/29 13:14:15;;;;;;;;;;;;;;;16.16;63.39;100688.86;1497420;96;20129;-70
2022/04/29 13:16:44;;;;;;;;;;;;;;;16.11;63.60;100689.45;1512370;94;20122;-72
2022/04/29 13:19:11;;;;;;;;;;;;;;;16.11;64.94;100689.95;1526719;94;20172;-73
2022/04/29 13:21:38;;;;;;;;;;;;;;;16.08;64.98;100690.36;1525945;94;20249;-74
2022/04/29 13:24:05;;;;;;;;;;;;;;;16.02;65.16;100689.74;1540163;91;20156;-73
2022/04/29 13:26:37;;;;;;;;;;;;;;;15.97;66.46;100690.34;1670569;85;20092;-74
2022/04/29 13:29:03;;;;;;;;;;;;;;;15.91;66.37;100690.55;1692830;82;20183;-72
2022/04/29 13:31:30;;;;;;;;;;;;;;;15.86;67.46;100688.08;1781898;80;20167;-72
2022/04/29 13:33:57;;;;;;;;;;;;;;;15.82;67.04;100688.97;1791058;79;20149;-69
2022/04/29 13:36:25;;;;;;;;;;;;;;;15.79;68.10;100689.34;1826288;79;20090;-73
2022/04/29 13:38:52;;;;;;;;;;;;;;;15.72;66.76;100691.11;1803491;79;20097;-74
2022/04/29 13:41:21;;;;;;;;;;;;;;;15.60;66.03;100699.42;1786606;80;20421;-73